^^
Saratoga-Weather Station Historical Data
Daily Summary for May 26, 2021 Units:  Both    English   Metric
Daily Weekly Monthly Yearly Custom
  High: Low: Average:
Temperature: 75.6 °F /  24.2 °C 52.9 °F /  11.6 °C 60.6 °F /  15.9 °C
Dew Point: 59 °F /  15 °C 50 °F /  10 °C 53.4 °F /  11.9 °C
Humidity: 94% 50% 79%
Wind Speed: 5mph /  8km/h - 0.7mph /  1.1km/h
Wind Gust: 8mph /  12.9km/h - -
Wind- - East
Pressure: 30.1 in /  1018.0 hPa 30 in /  1016.9 hPa -
Precipitation: 0 in /  0.0 mm    
Historical Graphs
 
 
Tabular Data for May 26, 2021
Time Temperature Dew Point Pressure Wind Wind Speed Wind Gust Humidity Rainfall Rate (Hourly) solar
00:02 57.6 °F /  14.2 °C 51.4 °F /  10.8 °C 30.1in /  1017.6hPa Calm     80% 0in /  0.0mm 0 W/m2
00:07 57.6 °F /  14.2 °C 51.4 °F /  10.8 °C 30.1in /  1017.6hPa Calm     80% 0in /  0.0mm 0 W/m2
00:12 57.4 °F /  14.1 °C 51.3 °F /  10.7 °C 30.1in /  1017.6hPa Calm     80% 0in /  0.0mm 0 W/m2
00:17 57.4 °F /  14.1 °C 51.3 °F /  10.7 °C 30.1in /  1017.6hPa Calm     80% 0in /  0.0mm 0 W/m2
00:22 57.4 °F /  14.1 °C 51.3 °F /  10.7 °C 30.1in /  1017.6hPa Calm     80% 0in /  0.0mm 0 W/m2
00:27 57 °F /  13.9 °C 51.3 °F /  10.7 °C 30.1in /  1017.6hPa Calm     81% 0in /  0.0mm 0 W/m2
00:32 57 °F /  13.9 °C 51.3 °F /  10.7 °C 30.1in /  1017.6hPa Calm     81% 0in /  0.0mm 0 W/m2
00:37 56.8 °F /  13.8 °C 51.4 °F /  10.8 °C 30.1in /  1017.6hPa Calm     82% 0in /  0.0mm 0 W/m2
00:42 56.8 °F /  13.8 °C 51.4 °F /  10.8 °C 30.1in /  1017.6hPa Calm     82% 0in /  0.0mm 0 W/m2
00:47 56.7 °F /  13.7 °C 51.3 °F /  10.7 °C 30.1in /  1017.6hPa Calm     82% 0in /  0.0mm 0 W/m2
00:52 56.7 °F /  13.7 °C 51.3 °F /  10.7 °C 30.1in /  1017.6hPa Calm     82% 0in /  0.0mm 0 W/m2
00:57 56.5 °F /  13.6 °C 51.4 °F /  10.8 °C 30.1in /  1017.6hPa Calm     83% 0in /  0.0mm 0 W/m2
01:02 56.5 °F /  13.6 °C 51.4 °F /  10.8 °C 30.1in /  1017.6hPa Calm     83% 0in /  0.0mm 0 W/m2
01:07 56.3 °F /  13.5 °C 51.3 °F /  10.7 °C 30.1in /  1017.6hPa Calm     83% 0in /  0.0mm 0 W/m2
01:12 56.3 °F /  13.5 °C 51.3 °F /  10.7 °C 30.1in /  1017.6hPa Calm     83% 0in /  0.0mm 0 W/m2
01:17 56.1 °F /  13.4 °C 51.1 °F /  10.6 °C 30.1in /  1017.6hPa Calm     83% 0in /  0.0mm 0 W/m2
01:22 56.1 °F /  13.4 °C 51.4 °F /  10.8 °C 30.1in /  1017.6hPa Calm     84% 0in /  0.0mm 0 W/m2
01:27 56.1 °F /  13.4 °C 51.4 °F /  10.8 °C 30.1in /  1017.6hPa Calm     84% 0in /  0.0mm 0 W/m2
01:32 56.1 °F /  13.4 °C 51.4 °F /  10.8 °C 30.1in /  1017.6hPa Calm     84% 0in /  0.0mm 0 W/m2
01:37 56.1 °F /  13.4 °C 51.1 °F /  10.6 °C 30.1in /  1017.6hPa Calm     83% 0in /  0.0mm 0 W/m2
01:42 56.1 °F /  13.4 °C 51.4 °F /  10.8 °C 30.1in /  1017.6hPa Calm     84% 0in /  0.0mm 0 W/m2
01:47 56.1 °F /  13.4 °C 51.4 °F /  10.8 °C 30.1in /  1017.6hPa Calm     84% 0in /  0.0mm 0 W/m2
01:52 56.1 °F /  13.4 °C 51.4 °F /  10.8 °C 30.1in /  1017.6hPa Calm     84% 0in /  0.0mm 0 W/m2
01:57 56.1 °F /  13.4 °C 51.4 °F /  10.8 °C 30.1in /  1017.6hPa Calm     84% 0in /  0.0mm 0 W/m2
02:02 56.1 °F /  13.4 °C 51.4 °F /  10.8 °C 30.1in /  1017.6hPa Calm     84% 0in /  0.0mm 0 W/m2
02:07 56.1 °F /  13.4 °C 51.4 °F /  10.8 °C 30.1in /  1017.6hPa Calm     84% 0in /  0.0mm 0 W/m2
02:12 56.1 °F /  13.4 °C 51.4 °F /  10.8 °C 30.1in /  1017.6hPa Calm     84% 0in /  0.0mm 0 W/m2
02:17 55.9 °F /  13.3 °C 51.3 °F /  10.7 °C 30.1in /  1017.6hPa Calm     84% 0in /  0.0mm 0 W/m2
02:22 55.9 °F /  13.3 °C 51.3 °F /  10.7 °C 30.1in /  1017.6hPa Calm     84% 0in /  0.0mm 0 W/m2
02:27 55.8 °F /  13.2 °C 51.3 °F /  10.7 °C 30in /  1017.3hPa Calm     85% 0in /  0.0mm 0 W/m2
02:32 55.6 °F /  13.1 °C 51.1 °F /  10.6 °C 30.1in /  1017.6hPa Calm     85% 0in /  0.0mm 0 W/m2
02:37 55.2 °F /  12.9 °C 50.7 °F /  10.4 °C 30.1in /  1017.6hPa Calm     85% 0in /  0.0mm 0 W/m2
02:42 55 °F /  12.8 °C 50.9 °F /  10.5 °C 30in /  1017.3hPa Calm     86% 0in /  0.0mm 0 W/m2
02:47 54.9 °F /  12.7 °C 50.7 °F /  10.4 °C 30in /  1017.3hPa Calm     86% 0in /  0.0mm 0 W/m2
02:52 54.9 °F /  12.7 °C 50.7 °F /  10.4 °C 30in /  1017.3hPa Calm     86% 0in /  0.0mm 0 W/m2
02:57 54.7 °F /  12.6 °C 50.5 °F /  10.3 °C 30in /  1017.3hPa Calm     86% 0in /  0.0mm 0 W/m2
03:02 54.5 °F /  12.5 °C 50.7 °F /  10.4 °C 30in /  1017.3hPa Calm     87% 0in /  0.0mm 0 W/m2
03:07 54.3 °F /  12.4 °C 50.5 °F /  10.3 °C 30in /  1017.3hPa Calm     87% 0in /  0.0mm 0 W/m2
03:12 54.3 °F /  12.4 °C 50.5 °F /  10.3 °C 30in /  1017.3hPa Calm     87% 0in /  0.0mm 0 W/m2
03:17 54.1 °F /  12.3 °C 50.7 °F /  10.4 °C 30.1in /  1017.6hPa Calm     88% 0in /  0.0mm 0 W/m2
03:22 54.1 °F /  12.3 °C 50.4 °F /  10.2 °C 30.1in /  1017.6hPa Calm     87% 0in /  0.0mm 0 W/m2
03:27 54.1 °F /  12.3 °C 50.7 °F /  10.4 °C 30.1in /  1017.6hPa Calm     88% 0in /  0.0mm 0 W/m2
03:32 54 °F /  12.2 °C 50.5 °F /  10.3 °C 30in /  1017.3hPa Calm     88% 0in /  0.0mm 0 W/m2
03:37 54 °F /  12.2 °C 50.5 °F /  10.3 °C 30.1in /  1017.6hPa Calm     88% 0in /  0.0mm 0 W/m2
03:42 53.8 °F /  12.1 °C 50.4 °F /  10.2 °C 30.1in /  1017.6hPa Calm     88% 0in /  0.0mm 0 W/m2
03:47 53.8 °F /  12.1 °C 50.5 °F /  10.3 °C 30.1in /  1017.6hPa Calm     89% 0in /  0.0mm 0 W/m2
03:52 53.6 °F /  12 °C 50.4 °F /  10.2 °C 30in /  1017.3hPa Calm     89% 0in /  0.0mm 0 W/m2
03:57 53.4 °F /  11.9 °C 50.2 °F /  10.1 °C 30.1in /  1017.6hPa Calm     89% 0in /  0.0mm 0 W/m2
04:02 53.4 °F /  11.9 °C 50.2 °F /  10.1 °C 30.1in /  1017.6hPa Calm     89% 0in /  0.0mm 0 W/m2
04:07 53.2 °F /  11.8 °C 50 °F /  10 °C 30.1in /  1017.6hPa Calm     89% 0in /  0.0mm 0 W/m2
04:12 53.2 °F /  11.8 °C 50.4 °F /  10.2 °C 30in /  1017.3hPa Calm     90% 0in /  0.0mm 0 W/m2
04:17 53.4 °F /  11.9 °C 50.5 °F /  10.3 °C 30in /  1017.3hPa Calm     90% 0in /  0.0mm 0 W/m2
04:22 53.6 °F /  12 °C 50.7 °F /  10.4 °C 30.1in /  1017.6hPa Calm     90% 0in /  0.0mm 0 W/m2
04:27 53.6 °F /  12 °C 50.7 °F /  10.4 °C 30in /  1017.3hPa Calm     90% 0in /  0.0mm 0 W/m2
04:32 53.8 °F /  12.1 °C 50.9 °F /  10.5 °C 30.1in /  1017.6hPa Calm     90% 0in /  0.0mm 0 W/m2
04:37 53.8 °F /  12.1 °C 51.3 °F /  10.7 °C 30.1in /  1017.6hPa Calm     91% 0in /  0.0mm 0 W/m2
04:42 54 °F /  12.2 °C 51.4 °F /  10.8 °C 30in /  1017.3hPa Calm     91% 0in /  0.0mm 0 W/m2
04:47 53.8 °F /  12.1 °C 50.9 °F /  10.5 °C 30in /  1017.3hPa Calm     90% 0in /  0.0mm 0 W/m2
04:52 53.8 °F /  12.1 °C 50.9 °F /  10.5 °C 30in /  1017.3hPa Calm     90% 0in /  0.0mm 0 W/m2
04:57 53.8 °F /  12.1 °C 51.3 °F /  10.7 °C 30in /  1017.3hPa Calm     91% 0in /  0.0mm 0 W/m2
05:03 53.8 °F /  12.1 °C 51.3 °F /  10.7 °C 30in /  1017.3hPa Calm     91% 0in /  0.0mm 0 W/m2
05:08 53.6 °F /  12 °C 51.1 °F /  10.6 °C 30in /  1017.3hPa Calm     91% 0in /  0.0mm 0 W/m2
05:13 53.4 °F /  11.9 °C 50.9 °F /  10.5 °C 30in /  1017.3hPa Calm     91% 0in /  0.0mm 0 W/m2
05:18 53.4 °F /  11.9 °C 50.9 °F /  10.5 °C 30in /  1017.3hPa Calm     91% 0in /  0.0mm 0 W/m2
05:23 53.2 °F /  11.8 °C 50.7 °F /  10.4 °C 30in /  1017.3hPa Calm     91% 0in /  0.0mm 0 W/m2
05:28 53.2 °F /  11.8 °C 50.7 °F /  10.4 °C 30in /  1017.3hPa Calm     91% 0in /  0.0mm 0 W/m2
05:33 53.1 °F /  11.7 °C 50.5 °F /  10.3 °C 30in /  1017.3hPa Calm     91% 0in /  0.0mm 0 W/m2
05:38 53.1 °F /  11.7 °C 50.7 °F /  10.4 °C 30.1in /  1017.6hPa Calm     92% 0in /  0.0mm 5 W/m2
05:43 52.9 °F /  11.6 °C 50.5 °F /  10.3 °C 30in /  1017.3hPa Calm     92% 0in /  0.0mm 7 W/m2
05:48 52.9 °F /  11.6 °C 50.5 °F /  10.3 °C 30in /  1017.3hPa Calm     92% 0in /  0.0mm 9 W/m2
05:53 52.9 °F /  11.6 °C 50.5 °F /  10.3 °C 30in /  1017.3hPa Calm     92% 0in /  0.0mm 14 W/m2
05:58 52.9 °F /  11.6 °C 50.5 °F /  10.3 °C 30in /  1017.3hPa Calm     92% 0in /  0.0mm 16 W/m2
06:03 52.9 °F /  11.6 °C 50.5 °F /  10.3 °C 30.1in /  1017.6hPa Calm     92% 0in /  0.0mm 18 W/m2
06:08 52.9 °F /  11.6 °C 50.9 °F /  10.5 °C 30.1in /  1017.6hPa Calm     93% 0in /  0.0mm 21 W/m2
06:13 52.9 °F /  11.6 °C 50.9 °F /  10.5 °C 30.1in /  1017.6hPa Calm     93% 0in /  0.0mm 23 W/m2
06:18 52.9 °F /  11.6 °C 50.9 °F /  10.5 °C 30.1in /  1017.6hPa Calm     93% 0in /  0.0mm 30 W/m2
06:23 52.9 °F /  11.6 °C 50.9 °F /  10.5 °C 30.1in /  1017.6hPa Calm     93% 0in /  0.0mm 32 W/m2
06:28 53.1 °F /  11.7 °C 51.1 °F /  10.6 °C 30.1in /  1017.6hPa Calm     93% 0in /  0.0mm 33 W/m2
06:33 53.2 °F /  11.8 °C 51.6 °F /  10.9 °C 30.1in /  1017.6hPa Calm     94% 0in /  0.0mm 35 W/m2
06:38 53.2 °F /  11.8 °C 51.6 °F /  10.9 °C 30.1in /  1017.6hPa Calm     94% 0in /  0.0mm 33 W/m2
06:43 53.4 °F /  11.9 °C 51.8 °F /  11 °C 30.1in /  1017.6hPa Calm     94% 0in /  0.0mm 30 W/m2
06:48 53.6 °F /  12 °C 52 °F /  11.1 °C 30.1in /  1017.6hPa Calm     94% 0in /  0.0mm 33 W/m2
06:53 53.8 °F /  12.1 °C 51.8 °F /  11 °C 30.1in /  1017.6hPa Calm     93% 0in /  0.0mm 37 W/m2
06:58 54 °F /  12.2 °C 52 °F /  11.1 °C 30.1in /  1017.6hPa Calm     93% 0in /  0.0mm 35 W/m2
07:03 54 °F /  12.2 °C 52 °F /  11.1 °C 30.1in /  1017.6hPa Calm     93% 0in /  0.0mm 39 W/m2
07:08 54.1 °F /  12.3 °C 52.2 °F /  11.2 °C 30.1in /  1017.6hPa Calm     93% 0in /  0.0mm 44 W/m2
07:13 54.3 °F /  12.4 °C 52.3 °F /  11.3 °C 30.1in /  1017.6hPa Calm     93% 0in /  0.0mm 49 W/m2
07:18 54.9 °F /  12.7 °C 52.5 °F /  11.4 °C 30.1in /  1017.6hPa Calm     92% 0in /  0.0mm 58 W/m2
07:23 55 °F /  12.8 °C 52.7 °F /  11.5 °C 30.1in /  1017.6hPa Calm     92% 0in /  0.0mm 65 W/m2
07:28 55.6 °F /  13.1 °C 53.1 °F /  11.7 °C 30.1in /  1017.6hPa North 2mph /  3.2km/h 2mph /  3.2km/h 91% 0in /  0.0mm 76 W/m2
07:33 55.9 °F /  13.3 °C 53.4 °F /  11.9 °C 30.1in /  1017.6hPa Calm   1mph /  1.6km/h 91% 0in /  0.0mm 86 W/m2
07:38 56.3 °F /  13.5 °C 53.4 °F /  11.9 °C 30.1in /  1017.6hPa NE 2mph /  3.2km/h 2mph /  3.2km/h 90% 0in /  0.0mm 132 W/m2
07:43 56.7 °F /  13.7 °C 53.4 °F /  11.9 °C 30.1in /  1017.6hPa NE 0.9mph /  1.4km/h 3mph /  4.8km/h 89% 0in /  0.0mm 255 W/m2
07:48 57 °F /  13.9 °C 53.2 °F /  11.8 °C 30.1in /  1017.6hPa NE 0.9mph /  1.4km/h 3mph /  4.8km/h 87% 0in /  0.0mm 260 W/m2
07:53 57.6 °F /  14.2 °C 53.8 °F /  12.1 °C 30.1in /  1017.6hPa NE 0.9mph /  1.4km/h 1mph /  1.6km/h 87% 0in /  0.0mm 216 W/m2
07:58 58.3 °F /  14.6 °C 54.1 °F /  12.3 °C 30.1in /  1017.6hPa Calm     86% 0in /  0.0mm 193 W/m2
08:03 58.8 °F /  14.9 °C 54.7 °F /  12.6 °C 30.1in /  1017.6hPa Calm   2mph /  3.2km/h 86% 0in /  0.0mm 323 W/m2
08:08 59.5 °F /  15.3 °C 54.7 °F /  12.6 °C 30.1in /  1017.6hPa ENE 0.9mph /  1.4km/h 2mph /  3.2km/h 84% 0in /  0.0mm 292 W/m2
08:13 60.1 °F /  15.6 °C 54.9 °F /  12.7 °C 30.1in /  1017.6hPa Calm   2mph /  3.2km/h 83% 0in /  0.0mm 253 W/m2
08:18 61 °F /  16.1 °C 55.4 °F /  13 °C 30.1in /  1017.6hPa East 0.9mph /  1.4km/h 2mph /  3.2km/h 82% 0in /  0.0mm 188 W/m2
08:23 61.3 °F /  16.3 °C 55 °F /  12.8 °C 30.1in /  1018.0hPa NNE 0.9mph /  1.4km/h 2mph /  3.2km/h 80% 0in /  0.0mm 171 W/m2
08:28 61.9 °F /  16.6 °C 55.6 °F /  13.1 °C 30.1in /  1017.6hPa NNW 0.9mph /  1.4km/h 2mph /  3.2km/h 80% 0in /  0.0mm 160 W/m2
08:33 62.1 °F /  16.7 °C 55.4 °F /  13 °C 30.1in /  1017.6hPa Calm   2mph /  3.2km/h 79% 0in /  0.0mm 183 W/m2
08:38 62.2 °F /  16.8 °C 55.6 °F /  13.1 °C 30.1in /  1017.6hPa East 0.9mph /  1.4km/h 2mph /  3.2km/h 79% 0in /  0.0mm 178 W/m2
08:43 62.2 °F /  16.8 °C 55.6 °F /  13.1 °C 30.1in /  1018.0hPa ESE 0.9mph /  1.4km/h 3mph /  4.8km/h 79% 0in /  0.0mm 199 W/m2
08:48 62.4 °F /  16.9 °C 55.8 °F /  13.2 °C 30.1in /  1018.0hPa East 0.9mph /  1.4km/h 5mph /  8km/h 79% 0in /  0.0mm 200 W/m2
08:53 62.8 °F /  17.1 °C 56.5 °F /  13.6 °C 30.1in /  1018.0hPa North 0.9mph /  1.4km/h 5mph /  8km/h 80% 0in /  0.0mm 209 W/m2
08:58 63.1 °F /  17.3 °C 56.1 °F /  13.4 °C 30.1in /  1018.0hPa NE 2mph /  3.2km/h 3mph /  4.8km/h 78% 0in /  0.0mm 192 W/m2
09:03 63.3 °F /  17.4 °C 56.7 °F /  13.7 °C 30.1in /  1018.0hPa Calm   5mph /  8km/h 79% 0in /  0.0mm 171 W/m2
09:08 63.7 °F /  17.6 °C 56.7 °F /  13.7 °C 30.1in /  1018.0hPa NE 2mph /  3.2km/h 4mph /  6.4km/h 78% 0in /  0.0mm 171 W/m2
09:13 63.5 °F /  17.5 °C 56.1 °F /  13.4 °C 30.1in /  1018.0hPa ENE 0.9mph /  1.4km/h 3mph /  4.8km/h 77% 0in /  0.0mm 163 W/m2
09:18 63.3 °F /  17.4 °C 55.9 °F /  13.3 °C 30.1in /  1018.0hPa NNE 0.9mph /  1.4km/h 3mph /  4.8km/h 77% 0in /  0.0mm 315 W/m2
09:23 63.7 °F /  17.6 °C 56.3 °F /  13.5 °C 30.1in /  1018.0hPa ENE 0.9mph /  1.4km/h 3mph /  4.8km/h 77% 0in /  0.0mm 504 W/m2
09:28 63.9 °F /  17.7 °C 56.5 °F /  13.6 °C 30.1in /  1017.6hPa ENE 0.9mph /  1.4km/h 5mph /  8km/h 77% 0in /  0.0mm 561 W/m2
09:33 64.2 °F /  17.9 °C 56.5 °F /  13.6 °C 30.1in /  1017.6hPa Calm   3mph /  4.8km/h 76% 0in /  0.0mm 315 W/m2
09:38 64.4 °F /  18 °C 57 °F /  13.9 °C 30.1in /  1017.6hPa ESE 2mph /  3.2km/h 5mph /  8km/h 77% 0in /  0.0mm 508 W/m2
09:43 64.8 °F /  18.2 °C 56.7 °F /  13.7 °C 30.1in /  1017.6hPa SE 0.9mph /  1.4km/h 2mph /  3.2km/h 75% 0in /  0.0mm 295 W/m2
09:48 64.9 °F /  18.3 °C 56.8 °F /  13.8 °C 30.1in /  1017.6hPa East 0.9mph /  1.4km/h 3mph /  4.8km/h 75% 0in /  0.0mm 408 W/m2
09:53 65.1 °F /  18.4 °C 57 °F /  13.9 °C 30.1in /  1017.6hPa East 2.9mph /  4.7km/h 4mph /  6.4km/h 75% 0in /  0.0mm 304 W/m2
09:58 65.5 °F /  18.6 °C 57 °F /  13.9 °C 30.1in /  1017.6hPa Calm     74% 0in /  0.0mm 295 W/m2
10:03 65.7 °F /  18.7 °C 57.2 °F /  14 °C 30.1in /  1017.6hPa East 0.9mph /  1.4km/h 4mph /  6.4km/h 74% 0in /  0.0mm 327 W/m2
10:08 65.7 °F /  18.7 °C 56.8 °F /  13.8 °C 30.1in /  1017.6hPa Calm   1mph /  1.6km/h 73% 0in /  0.0mm 462 W/m2
10:13 66 °F /  18.9 °C 57.2 °F /  14 °C 30.1in /  1017.6hPa ENE 0.9mph /  1.4km/h 3mph /  4.8km/h 73% 0in /  0.0mm 234 W/m2
10:18 66.4 °F /  19.1 °C 57.4 °F /  14.1 °C 30.1in /  1017.6hPa East 0.9mph /  1.4km/h 1mph /  1.6km/h 73% 0in /  0.0mm 339 W/m2
10:23 66.7 °F /  19.3 °C 57.4 °F /  14.1 °C 30.1in /  1017.6hPa ENE 4mph /  6.4km/h 4mph /  6.4km/h 72% 0in /  0.0mm 668 W/m2
10:28 67.3 °F /  19.6 °C 57.6 °F /  14.2 °C 30.1in /  1017.6hPa East 2.9mph /  4.7km/h 3mph /  4.8km/h 71% 0in /  0.0mm 679 W/m2
10:33 67.6 °F /  19.8 °C 57.9 °F /  14.4 °C 30.1in /  1017.6hPa NE 2.9mph /  4.7km/h 5mph /  8km/h 71% 0in /  0.0mm 700 W/m2
10:38 68.2 °F /  20.1 °C 58.1 °F /  14.5 °C 30.1in /  1017.6hPa ENE 0.9mph /  1.4km/h 6mph /  9.7km/h 70% 0in /  0.0mm 642 W/m2
10:43 68.7 °F /  20.4 °C 59 °F /  15 °C 30.1in /  1017.6hPa ENE 0.9mph /  1.4km/h 4mph /  6.4km/h 71% 0in /  0.0mm 541 W/m2
10:48 69.3 °F /  20.7 °C 59 °F /  15 °C 30.1in /  1017.6hPa ENE 4mph /  6.4km/h 6mph /  9.7km/h 70% 0in /  0.0mm 701 W/m2
10:53 70 °F /  21.1 °C 59 °F /  15 °C 30.1in /  1017.6hPa East 2.9mph /  4.7km/h 3mph /  4.8km/h 68% 0in /  0.0mm 712 W/m2
10:58 70.3 °F /  21.3 °C 58.5 °F /  14.7 °C 30.1in /  1017.6hPa ESE 5mph /  8km/h 5mph /  8km/h 66% 0in /  0.0mm 722 W/m2
11:03 70.3 °F /  21.3 °C 58.5 °F /  14.7 °C 30.1in /  1017.6hPa NE 0.9mph /  1.4km/h 4mph /  6.4km/h 66% 0in /  0.0mm 733 W/m2
11:08 70.9 °F /  21.6 °C 58.1 °F /  14.5 °C 30.1in /  1017.6hPa ESE 0.9mph /  1.4km/h 4mph /  6.4km/h 64% 0in /  0.0mm 745 W/m2
11:13 71.1 °F /  21.7 °C 58.6 °F /  14.8 °C 30in /  1017.3hPa ENE 2mph /  3.2km/h 3mph /  4.8km/h 65% 0in /  0.0mm 740 W/m2
11:18 71.4 °F /  21.9 °C 58.1 °F /  14.5 °C 30in /  1017.3hPa ESE 2mph /  3.2km/h 6mph /  9.7km/h 63% 0in /  0.0mm 772 W/m2
11:23 71.8 °F /  22.1 °C 57.2 °F /  14 °C 30in /  1017.3hPa NNE 2mph /  3.2km/h 8mph /  12.9km/h 60% 0in /  0.0mm 793 W/m2
11:28 71.8 °F /  22.1 °C 57.6 °F /  14.2 °C 30in /  1017.3hPa East 0.9mph /  1.4km/h 2mph /  3.2km/h 61% 0in /  0.0mm 802 W/m2
11:33 72.1 °F /  22.3 °C 57.6 °F /  14.2 °C 30in /  1017.3hPa WSW 0.9mph /  1.4km/h 8mph /  12.9km/h 60% 0in /  0.0mm 831 W/m2
11:38 72.3 °F /  22.4 °C 57.7 °F /  14.3 °C 30in /  1017.3hPa ENE 2mph /  3.2km/h 3mph /  4.8km/h 60% 0in /  0.0mm 872 W/m2
11:43 72.7 °F /  22.6 °C 56.5 °F /  13.6 °C 30in /  1017.3hPa NNE 2mph /  3.2km/h 2mph /  3.2km/h 57% 0in /  0.0mm 773 W/m2
11:48 73.2 °F /  22.9 °C 56.7 °F /  13.7 °C 30in /  1017.3hPa East 2mph /  3.2km/h 4mph /  6.4km/h 56% 0in /  0.0mm 439 W/m2
11:53 73.9 °F /  23.3 °C 55.8 °F /  13.2 °C 30in /  1017.3hPa ESE 0.9mph /  1.4km/h 6mph /  9.7km/h 53% 0in /  0.0mm 696 W/m2
11:58 73.8 °F /  23.2 °C 55 °F /  12.8 °C 30in /  1017.3hPa ENE 2mph /  3.2km/h 3mph /  4.8km/h 52% 0in /  0.0mm 411 W/m2
12:03 73 °F /  22.8 °C 56.5 °F /  13.6 °C 30in /  1017.3hPa West 2mph /  3.2km/h 2mph /  3.2km/h 56% 0in /  0.0mm 722 W/m2
12:08 73.4 °F /  23 °C 55.8 °F /  13.2 °C 30in /  1016.9hPa NE 2mph /  3.2km/h 3mph /  4.8km/h 54% 0in /  0.0mm 969 W/m2
12:13 73.9 °F /  23.3 °C 55.2 °F /  12.9 °C 30in /  1016.9hPa SE 2.9mph /  4.7km/h 7mph /  11.3km/h 52% 0in /  0.0mm 914 W/m2
12:18 74.1 °F /  23.4 °C 55.4 °F /  13 °C 30in /  1016.9hPa NE 2mph /  3.2km/h 4mph /  6.4km/h 52% 0in /  0.0mm 628 W/m2
12:23 74.3 °F /  23.5 °C 55.6 °F /  13.1 °C 30in /  1016.9hPa ENE 2mph /  3.2km/h 3mph /  4.8km/h 52% 0in /  0.0mm 605 W/m2
12:28 74.1 °F /  23.4 °C 55.4 °F /  13 °C 30in /  1016.9hPa NE 0.9mph /  1.4km/h 3mph /  4.8km/h 52% 0in /  0.0mm 204 W/m2
12:33 74.1 °F /  23.4 °C 56.8 °F /  13.8 °C 30in /  1016.9hPa East 2mph /  3.2km/h 4mph /  6.4km/h 55% 0in /  0.0mm 664 W/m2
12:38 74.1 °F /  23.4 °C 57.4 °F /  14.1 °C 30in /  1016.9hPa ENE 4mph /  6.4km/h 4mph /  6.4km/h 56% 0in /  0.0mm 947 W/m2
12:43 74.1 °F /  23.4 °C 55.9 °F /  13.3 °C 30in /  1016.9hPa North 0.9mph /  1.4km/h 4mph /  6.4km/h 53% 0in /  0.0mm 216 W/m2
12:48 73.8 °F /  23.2 °C 56.7 °F /  13.7 °C 30in /  1016.9hPa NNW 0.9mph /  1.4km/h 2mph /  3.2km/h 55% 0in /  0.0mm 1004 W/m2
12:53 73.6 °F /  23.1 °C 56.8 °F /  13.8 °C 30in /  1016.9hPa East 4mph /  6.4km/h 6mph /  9.7km/h 56% 0in /  0.0mm 1032 W/m2
12:58 73.9 °F /  23.3 °C 55.8 °F /  13.2 °C 30in /  1016.9hPa East 2.9mph /  4.7km/h 7mph /  11.3km/h 53% 0in /  0.0mm 965 W/m2
13:03 73.9 °F /  23.3 °C 55.2 °F /  12.9 °C 30in /  1016.9hPa East 2mph /  3.2km/h 4mph /  6.4km/h 52% 0in /  0.0mm 251 W/m2
13:09 73.8 °F /  23.2 °C 54.5 °F /  12.5 °C 30in /  1016.9hPa East 0.9mph /  1.4km/h 4mph /  6.4km/h 51% 0in /  0.0mm 461 W/m2
13:14 73.8 °F /  23.2 °C 54 °F /  12.2 °C 30in /  1016.9hPa NW 2mph /  3.2km/h 4mph /  6.4km/h 50% 0in /  0.0mm 455 W/m2
13:19 73.9 °F /  23.3 °C 56.3 °F /  13.5 °C 30in /  1016.9hPa ESE 2.9mph /  4.7km/h 3mph /  4.8km/h 54% 0in /  0.0mm 538 W/m2
13:24 74.3 °F /  23.5 °C 56.1 °F /  13.4 °C 30in /  1016.9hPa East 0.9mph /  1.4km/h 3mph /  4.8km/h 53% 0in /  0.0mm 376 W/m2
13:29 74.7 °F /  23.7 °C 56.5 °F /  13.6 °C 30in /  1016.9hPa Calm   6mph /  9.7km/h 53% 0in /  0.0mm 1060 W/m2
13:34 74.8 °F /  23.8 °C 55.6 °F /  13.1 °C 30in /  1016.9hPa ENE 2.9mph /  4.7km/h 6mph /  9.7km/h 51% 0in /  0.0mm 1055 W/m2
13:39 75 °F /  23.9 °C 57.2 °F /  14 °C 30in /  1016.9hPa SE 4mph /  6.4km/h 4mph /  6.4km/h 54% 0in /  0.0mm 1088 W/m2
13:44 75.6 °F /  24.2 °C 57.2 °F /  14 °C 30in /  1016.9hPa Calm   1mph /  1.6km/h 53% 0in /  0.0mm 1107 W/m2
Juneau County Weather
Compliments of Weather Underground - 4 mb